Pays
Station

 

Conditions  météo  pour  Erzincan  -  Turquie    Turquie

  
12 °C
    
 
 

METAR pour Erzincan :

LTCD 212350Z 22004KT 150V280 9999 BKN035 BKN080 12/09 Q1019 RERA BECMG 4000 BR

 

Voici le bulletin pour Erzincan - Turquie.
 
Le bulletin a été fait il y a 14 minutes, à 23:50 UTC .
Le vent soufflait à la vitesse de 2.1 mètres par seconde de Sud-ouest (220°), variant entre Sud/Sud-est (150°) et Ouest (280°).
 
La température était de 12 °C, avec un point de rosée à 9 °C.
La pression atmosphérique était de 1019 hPa.
L'humidité relative était de 81.9%.
 
Il y avait 5 à 7/8ème de nébulosité à une hauteur de 1067 mètres et 5 à 7/8ème de nébulosité à une hauteur de 2438 mètres.
 
La visibilité globale était de supérieure à 10 kilomètres.
 

 
 
 

Pays :   A   B   C   D   E   F   G   H   I   J   K   L   M   N   O   P   Q   R   S   T   U   V   W   Y   Z

 

Partenaires :  Info Météo avec Met'info
Météo Marine avec MeteoMarine.net
Infos Site  |  Infos Légales  |  Crédits  |  Confidentialité
Contactez-nous  |  Ajouter aux favoris
© 2013-2018 METAR - Tous droits réservés